GCFV

Fuerteventura Airport

Fuerteventura Island, Spain
METAR GCFV 170200Z AUTO 01011KT 9999 FEW025/// 17/14 Q1022
Observed Flight Rules
Dec-17 @ 02:00 UTC (24 minutes ago) Visual Flight Rules
Wind Visibility Clouds
10° at 11 knots 10,000+ meters
  • Few at 2,500' AGL
Temperatures Readings
Current 17°C / 63°F
Dewpoint 14°C / 57°F
Humidity 83%
Altimeter 30.18" Hg
Pressure 1022 hPa
Elevation 23
METAR GCFV 170200Z AUTO 01011KT 9999 FEW025/// 17/14 Q1022
Observed Flight Rules
Dec-17 @ 02:00 UTC
(24 minutes ago)
VFR
Wind Visibility
10° at 11 knots 10,000+ meters
Clouds
  • Few at 2,500' AGL
Temperature Dewpoint
17°C / 63°F 14°C / 57°F
Humidity Altimeter Pressure
83% 30.18" Hg 1022 hPa